sensor_id;sensor_type;location;lat;lon;timestamp;P1;durP1;ratioP1;P2;durP2;ratioP2
12271;SDS011;6198;51.446;6.698;2024-02-16T00:00:06;8.00;;;2.23;;
12271;SDS011;6198;51.446;6.698;2024-02-16T00:02:32;3.77;;;1.97;;
12271;SDS011;6198;51.446;6.698;2024-02-16T00:04:58;4.17;;;1.67;;
12271;SDS011;6198;51.446;6.698;2024-02-16T00:07:24;2.80;;;1.87;;
12271;SDS011;6198;51.446;6.698;2024-02-16T00:09:50;7.97;;;2.10;;
12271;SDS011;6198;51.446;6.698;2024-02-16T00:12:16;3.07;;;2.07;;
12271;SDS011;6198;51.446;6.698;2024-02-16T00:14:42;5.10;;;2.00;;
12271;SDS011;6198;51.446;6.698;2024-02-16T00:17:11;2.63;;;1.90;;
12271;SDS011;6198;51.446;6.698;2024-02-16T00:19:36;3.60;;;1.83;;
12271;SDS011;6198;51.446;6.698;2024-02-16T00:22:02;2.93;;;2.00;;
12271;SDS011;6198;51.446;6.698;2024-02-16T00:24:29;3.63;;;2.00;;
12271;SDS011;6198;51.446;6.698;2024-02-16T00:26:56;5.23;;;2.03;;
12271;SDS011;6198;51.446;6.698;2024-02-16T00:29:22;4.13;;;2.20;;
12271;SDS011;6198;51.446;6.698;2024-02-16T00:31:48;4.13;;;2.20;;
12271;SDS011;6198;51.446;6.698;2024-02-16T00:34:14;3.53;;;2.17;;
12271;SDS011;6198;51.446;6.698;2024-02-16T00:36:40;3.47;;;1.90;;
12271;SDS011;6198;51.446;6.698;2024-02-16T00:39:06;2.40;;;1.93;;
12271;SDS011;6198;51.446;6.698;2024-02-16T00:41:32;5.87;;;2.20;;
12271;SDS011;6198;51.446;6.698;2024-02-16T00:43:59;6.07;;;1.93;;
12271;SDS011;6198;51.446;6.698;2024-02-16T00:46:25;6.30;;;2.03;;
12271;SDS011;6198;51.446;6.698;2024-02-16T00:48:51;3.37;;;2.00;;
12271;SDS011;6198;51.446;6.698;2024-02-16T00:51:17;3.83;;;1.93;;
12271;SDS011;6198;51.446;6.698;2024-02-16T00:53:43;2.30;;;1.80;;
12271;SDS011;6198;51.446;6.698;2024-02-16T00:56:09;3.70;;;2.03;;
12271;SDS011;6198;51.446;6.698;2024-02-16T00:58:36;4.50;;;2.37;;
12271;SDS011;6198;51.446;6.698;2024-02-16T01:01:03;2.23;;;2.00;;
12271;SDS011;6198;51.446;6.698;2024-02-16T01:03:29;4.73;;;2.20;;
12271;SDS011;6198;51.446;6.698;2024-02-16T01:05:55;2.10;;;2.00;;
12271;SDS011;6198;51.446;6.698;2024-02-16T01:08:21;4.53;;;2.37;;
12271;SDS011;6198;51.446;6.698;2024-02-16T01:10:48;6.63;;;1.80;;
12271;SDS011;6198;51.446;6.698;2024-02-16T01:13:14;3.60;;;2.33;;
12271;SDS011;6198;51.446;6.698;2024-02-16T01:15:40;6.47;;;1.90;;
12271;SDS011;6198;51.446;6.698;2024-02-16T01:18:06;2.80;;;2.10;;
12271;SDS011;6198;51.446;6.698;2024-02-16T01:20:32;3.83;;;2.00;;
12271;SDS011;6198;51.446;6.698;2024-02-16T01:22:58;5.33;;;2.13;;
12271;SDS011;6198;51.446;6.698;2024-02-16T01:25:24;4.13;;;2.10;;
12271;SDS011;6198;51.446;6.698;2024-02-16T01:27:50;2.17;;;1.70;;
12271;SDS011;6198;51.446;6.698;2024-02-16T01:30:16;2.87;;;2.20;;
12271;SDS011;6198;51.446;6.698;2024-02-16T01:32:43;4.60;;;2.20;;
12271;SDS011;6198;51.446;6.698;2024-02-16T01:35:09;2.10;;;1.73;;
12271;SDS011;6198;51.446;6.698;2024-02-16T01:37:35;3.30;;;2.30;;
12271;SDS011;6198;51.446;6.698;2024-02-16T01:40:01;4.00;;;1.97;;
12271;SDS011;6198;51.446;6.698;2024-02-16T01:42:28;3.47;;;2.30;;
12271;SDS011;6198;51.446;6.698;2024-02-16T01:44:54;2.20;;;2.00;;
12271;SDS011;6198;51.446;6.698;2024-02-16T01:47:20;5.30;;;2.03;;
12271;SDS011;6198;51.446;6.698;2024-02-16T01:49:46;3.10;;;1.93;;
12271;SDS011;6198;51.446;6.698;2024-02-16T01:52:12;3.60;;;2.07;;
12271;SDS011;6198;51.446;6.698;2024-02-16T01:54:38;2.90;;;2.07;;
12271;SDS011;6198;51.446;6.698;2024-02-16T01:57:05;2.43;;;1.87;;
12271;SDS011;6198;51.446;6.698;2024-02-16T01:59:32;2.67;;;1.90;;
12271;SDS011;6198;51.446;6.698;2024-02-16T02:01:59;2.77;;;2.13;;
12271;SDS011;6198;51.446;6.698;2024-02-16T02:04:25;3.60;;;1.90;;
12271;SDS011;6198;51.446;6.698;2024-02-16T02:06:51;5.27;;;2.13;;
12271;SDS011;6198;51.446;6.698;2024-02-16T02:09:17;3.07;;;2.37;;
12271;SDS011;6198;51.446;6.698;2024-02-16T02:11:43;2.77;;;2.10;;
12271;SDS011;6198;51.446;6.698;2024-02-16T02:14:10;3.90;;;2.37;;
12271;SDS011;6198;51.446;6.698;2024-02-16T02:16:36;2.00;;;1.80;;
12271;SDS011;6198;51.446;6.698;2024-02-16T02:19:02;2.37;;;1.60;;
12271;SDS011;6198;51.446;6.698;2024-02-16T02:21:28;3.23;;;1.80;;
12271;SDS011;6198;51.446;6.698;2024-02-16T02:23:54;2.90;;;2.10;;
12271;SDS011;6198;51.446;6.698;2024-02-16T02:26:20;5.20;;;2.50;;
12271;SDS011;6198;51.446;6.698;2024-02-16T02:28:46;6.93;;;2.23;;
12271;SDS011;6198;51.446;6.698;2024-02-16T02:31:13;3.63;;;2.30;;
12271;SDS011;6198;51.446;6.698;2024-02-16T02:33:39;4.53;;;2.37;;
12271;SDS011;6198;51.446;6.698;2024-02-16T02:36:05;2.73;;;2.23;;
12271;SDS011;6198;51.446;6.698;2024-02-16T02:38:31;8.03;;;2.57;;
12271;SDS011;6198;51.446;6.698;2024-02-16T02:40:58;3.43;;;2.27;;
12271;SDS011;6198;51.446;6.698;2024-02-16T02:43:24;5.10;;;2.40;;
12271;SDS011;6198;51.446;6.698;2024-02-16T02:45:50;5.30;;;2.40;;
12271;SDS011;6198;51.446;6.698;2024-02-16T02:48:16;5.17;;;2.50;;
12271;SDS011;6198;51.446;6.698;2024-02-16T02:50:41;4.17;;;2.40;;
12271;SDS011;6198;51.446;6.698;2024-02-16T02:53:08;6.93;;;2.50;;
12271;SDS011;6198;51.446;6.698;2024-02-16T02:55:34;4.20;;;2.73;;
12271;SDS011;6198;51.446;6.698;2024-02-16T02:58:00;3.73;;;2.30;;
12271;SDS011;6198;51.446;6.698;2024-02-16T03:00:26;4.27;;;2.30;;
12271;SDS011;6198;51.446;6.698;2024-02-16T03:02:52;2.80;;;1.83;;
12271;SDS011;6198;51.446;6.698;2024-02-16T03:05:18;4.07;;;2.20;;
12271;SDS011;6198;51.446;6.698;2024-02-16T03:07:45;2.40;;;2.20;;
12271;SDS011;6198;51.446;6.698;2024-02-16T03:10:11;5.33;;;2.17;;
12271;SDS011;6198;51.446;6.698;2024-02-16T03:12:37;4.37;;;2.30;;
12271;SDS011;6198;51.446;6.698;2024-02-16T03:15:03;4.60;;;2.30;;
12271;SDS011;6198;51.446;6.698;2024-02-16T03:17:29;3.73;;;2.27;;
12271;SDS011;6198;51.446;6.698;2024-02-16T03:19:55;4.13;;;2.13;;
12271;SDS011;6198;51.446;6.698;2024-02-16T03:22:21;3.53;;;2.60;;
12271;SDS011;6198;51.446;6.698;2024-02-16T03:24:47;4.07;;;2.17;;
12271;SDS011;6198;51.446;6.698;2024-02-16T03:27:13;5.07;;;2.30;;
12271;SDS011;6198;51.446;6.698;2024-02-16T03:29:40;5.17;;;2.13;;
12271;SDS011;6198;51.446;6.698;2024-02-16T03:32:05;3.20;;;2.30;;
12271;SDS011;6198;51.446;6.698;2024-02-16T03:34:31;5.07;;;2.00;;
12271;SDS011;6198;51.446;6.698;2024-02-16T03:36:58;3.20;;;2.13;;
12271;SDS011;6198;51.446;6.698;2024-02-16T03:39:24;4.13;;;2.17;;
12271;SDS011;6198;51.446;6.698;2024-02-16T03:41:50;2.50;;;2.10;;
12271;SDS011;6198;51.446;6.698;2024-02-16T03:44:16;2.70;;;2.07;;
12271;SDS011;6198;51.446;6.698;2024-02-16T03:46:42;4.87;;;2.00;;
12271;SDS011;6198;51.446;6.698;2024-02-16T03:49:09;4.00;;;2.20;;
12271;SDS011;6198;51.446;6.698;2024-02-16T03:51:35;4.83;;;2.37;;
12271;SDS011;6198;51.446;6.698;2024-02-16T03:54:02;8.40;;;2.47;;
12271;SDS011;6198;51.446;6.698;2024-02-16T03:56:29;3.47;;;2.47;;
12271;SDS011;6198;51.446;6.698;2024-02-16T03:58:55;4.50;;;2.20;;
12271;SDS011;6198;51.446;6.698;2024-02-16T04:01:21;5.57;;;2.20;;
12271;SDS011;6198;51.446;6.698;2024-02-16T04:03:47;2.60;;;2.27;;
12271;SDS011;6198;51.446;6.698;2024-02-16T04:06:13;4.77;;;2.90;;
12271;SDS011;6198;51.446;6.698;2024-02-16T04:08:39;4.33;;;2.40;;
12271;SDS011;6198;51.446;6.698;2024-02-16T04:11:05;2.07;;;1.87;;
12271;SDS011;6198;51.446;6.698;2024-02-16T04:13:31;2.87;;;1.87;;
12271;SDS011;6198;51.446;6.698;2024-02-16T04:15:57;4.33;;;1.93;;
12271;SDS011;6198;51.446;6.698;2024-02-16T04:18:23;4.53;;;2.17;;
12271;SDS011;6198;51.446;6.698;2024-02-16T04:20:49;5.90;;;2.50;;
12271;SDS011;6198;51.446;6.698;2024-02-16T04:23:15;3.47;;;2.20;;
12271;SDS011;6198;51.446;6.698;2024-02-16T04:25:41;6.00;;;2.40;;
12271;SDS011;6198;51.446;6.698;2024-02-16T04:28:07;5.47;;;2.07;;
12271;SDS011;6198;51.446;6.698;2024-02-16T04:30:33;3.50;;;2.23;;
12271;SDS011;6198;51.446;6.698;2024-02-16T04:33:00;4.03;;;2.53;;
12271;SDS011;6198;51.446;6.698;2024-02-16T04:35:26;3.00;;;2.40;;
12271;SDS011;6198;51.446;6.698;2024-02-16T04:37:52;3.53;;;2.73;;
12271;SDS011;6198;51.446;6.698;2024-02-16T04:40:18;3.93;;;2.13;;
12271;SDS011;6198;51.446;6.698;2024-02-16T04:42:44;4.23;;;2.10;;
12271;SDS011;6198;51.446;6.698;2024-02-16T04:45:11;4.17;;;2.33;;
12271;SDS011;6198;51.446;6.698;2024-02-16T04:47:38;4.13;;;2.37;;
12271;SDS011;6198;51.446;6.698;2024-02-16T04:50:04;3.03;;;2.20;;
12271;SDS011;6198;51.446;6.698;2024-02-16T04:52:30;4.87;;;2.60;;
12271;SDS011;6198;51.446;6.698;2024-02-16T04:54:56;3.73;;;2.37;;
12271;SDS011;6198;51.446;6.698;2024-02-16T04:57:22;6.17;;;3.10;;
12271;SDS011;6198;51.446;6.698;2024-02-16T04:59:48;4.50;;;2.80;;
12271;SDS011;6198;51.446;6.698;2024-02-16T05:02:14;10.57;;;2.60;;
12271;SDS011;6198;51.446;6.698;2024-02-16T05:04:40;3.47;;;2.37;;
12271;SDS011;6198;51.446;6.698;2024-02-16T05:07:06;6.37;;;2.37;;
12271;SDS011;6198;51.446;6.698;2024-02-16T05:09:32;8.30;;;3.43;;
12271;SDS011;6198;51.446;6.698;2024-02-16T05:11:58;3.77;;;2.40;;
12271;SDS011;6198;51.446;6.698;2024-02-16T05:14:24;4.20;;;2.47;;
12271;SDS011;6198;51.446;6.698;2024-02-16T05:16:50;4.57;;;2.50;;
12271;SDS011;6198;51.446;6.698;2024-02-16T05:19:16;4.30;;;2.70;;
12271;SDS011;6198;51.446;6.698;2024-02-16T05:21:43;4.67;;;2.40;;
12271;SDS011;6198;51.446;6.698;2024-02-16T05:24:09;6.07;;;2.80;;
12271;SDS011;6198;51.446;6.698;2024-02-16T05:26:36;7.10;;;2.90;;
12271;SDS011;6198;51.446;6.698;2024-02-16T05:29:02;4.83;;;2.90;;
12271;SDS011;6198;51.446;6.698;2024-02-16T05:31:29;6.70;;;2.97;;
12271;SDS011;6198;51.446;6.698;2024-02-16T05:33:56;6.73;;;2.90;;
12271;SDS011;6198;51.446;6.698;2024-02-16T05:36:22;5.13;;;2.80;;
12271;SDS011;6198;51.446;6.698;2024-02-16T05:38:55;4.77;;;2.57;;
12271;SDS011;6198;51.446;6.698;2024-02-16T05:41:21;3.60;;;2.90;;
12271;SDS011;6198;51.446;6.698;2024-02-16T05:43:47;4.80;;;2.60;;
12271;SDS011;6198;51.446;6.698;2024-02-16T05:46:16;4.40;;;2.43;;
12271;SDS011;6198;51.446;6.698;2024-02-16T05:48:43;6.00;;;2.87;;
12271;SDS011;6198;51.446;6.698;2024-02-16T05:51:10;6.17;;;2.70;;
12271;SDS011;6198;51.446;6.698;2024-02-16T05:53:37;3.20;;;2.63;;
12271;SDS011;6198;51.446;6.698;2024-02-16T05:56:04;4.83;;;3.00;;
12271;SDS011;6198;51.446;6.698;2024-02-16T05:58:30;6.07;;;2.70;;
12271;SDS011;6198;51.446;6.698;2024-02-16T06:00:56;3.67;;;2.63;;
12271;SDS011;6198;51.446;6.698;2024-02-16T06:03:22;5.87;;;2.93;;
12271;SDS011;6198;51.446;6.698;2024-02-16T06:05:48;3.60;;;2.57;;
12271;SDS011;6198;51.446;6.698;2024-02-16T06:08:14;4.30;;;2.83;;
12271;SDS011;6198;51.446;6.698;2024-02-16T06:10:42;6.30;;;2.90;;
12271;SDS011;6198;51.446;6.698;2024-02-16T06:13:08;6.27;;;2.77;;
12271;SDS011;6198;51.446;6.698;2024-02-16T06:15:34;7.53;;;2.97;;
12271;SDS011;6198;51.446;6.698;2024-02-16T06:18:02;4.83;;;2.90;;
12271;SDS011;6198;51.446;6.698;2024-02-16T06:20:28;3.93;;;2.73;;
12271;SDS011;6198;51.446;6.698;2024-02-16T06:22:54;6.70;;;3.10;;
12271;SDS011;6198;51.446;6.698;2024-02-16T06:25:20;5.57;;;2.80;;
12271;SDS011;6198;51.446;6.698;2024-02-16T06:27:46;5.37;;;3.20;;
12271;SDS011;6198;51.446;6.698;2024-02-16T06:30:12;6.17;;;2.80;;
12271;SDS011;6198;51.446;6.698;2024-02-16T06:32:39;6.70;;;3.13;;
12271;SDS011;6198;51.446;6.698;2024-02-16T06:35:08;6.30;;;3.00;;
12271;SDS011;6198;51.446;6.698;2024-02-16T06:37:34;5.80;;;2.60;;
12271;SDS011;6198;51.446;6.698;2024-02-16T06:40:02;3.80;;;2.60;;
12271;SDS011;6198;51.446;6.698;2024-02-16T06:42:28;3.90;;;2.70;;
12271;SDS011;6198;51.446;6.698;2024-02-16T06:44:55;5.90;;;2.90;;
12271;SDS011;6198;51.446;6.698;2024-02-16T06:47:21;5.93;;;2.83;;
12271;SDS011;6198;51.446;6.698;2024-02-16T06:49:50;4.73;;;3.10;;
12271;SDS011;6198;51.446;6.698;2024-02-16T06:52:16;5.00;;;3.27;;
12271;SDS011;6198;51.446;6.698;2024-02-16T06:54:42;5.33;;;3.10;;
12271;SDS011;6198;51.446;6.698;2024-02-16T06:57:08;7.50;;;3.23;;
12271;SDS011;6198;51.446;6.698;2024-02-16T06:59:34;4.47;;;3.13;;
12271;SDS011;6198;51.446;6.698;2024-02-16T07:02:00;6.10;;;3.00;;
12271;SDS011;6198;51.446;6.698;2024-02-16T07:04:26;5.47;;;3.00;;
12271;SDS011;6198;51.446;6.698;2024-02-16T07:06:51;5.93;;;3.17;;
12271;SDS011;6198;51.446;6.698;2024-02-16T07:09:17;5.73;;;3.63;;
12271;SDS011;6198;51.446;6.698;2024-02-16T07:11:43;5.40;;;3.53;;
12271;SDS011;6198;51.446;6.698;2024-02-16T07:14:11;4.63;;;3.10;;
12271;SDS011;6198;51.446;6.698;2024-02-16T07:16:37;7.80;;;3.87;;
12271;SDS011;6198;51.446;6.698;2024-02-16T07:19:03;8.80;;;4.10;;
12271;SDS011;6198;51.446;6.698;2024-02-16T07:21:30;8.43;;;3.80;;
12271;SDS011;6198;51.446;6.698;2024-02-16T07:23:56;7.00;;;3.80;;
12271;SDS011;6198;51.446;6.698;2024-02-16T07:26:22;7.93;;;3.53;;
12271;SDS011;6198;51.446;6.698;2024-02-16T07:28:48;7.43;;;4.07;;
12271;SDS011;6198;51.446;6.698;2024-02-16T07:31:14;7.20;;;4.07;;
12271;SDS011;6198;51.446;6.698;2024-02-16T07:33:41;8.87;;;4.80;;
12271;SDS011;6198;51.446;6.698;2024-02-16T07:36:07;8.93;;;4.40;;
12271;SDS011;6198;51.446;6.698;2024-02-16T07:38:33;8.43;;;4.13;;
12271;SDS011;6198;51.446;6.698;2024-02-16T07:40:59;12.23;;;5.03;;
12271;SDS011;6198;51.446;6.698;2024-02-16T07:43:26;7.53;;;4.67;;
12271;SDS011;6198;51.446;6.698;2024-02-16T07:45:52;7.97;;;5.30;;
12271;SDS011;6198;51.446;6.698;2024-02-16T07:48:21;11.30;;;4.80;;
12271;SDS011;6198;51.446;6.698;2024-02-16T07:50:48;8.67;;;5.23;;
12271;SDS011;6198;51.446;6.698;2024-02-16T07:53:15;15.13;;;7.47;;
12271;SDS011;6198;51.446;6.698;2024-02-16T07:55:41;14.30;;;7.90;;
12271;SDS011;6198;51.446;6.698;2024-02-16T07:58:07;11.30;;;7.33;;
12271;SDS011;6198;51.446;6.698;2024-02-16T08:00:34;9.03;;;5.90;;
12271;SDS011;6198;51.446;6.698;2024-02-16T08:03:00;10.07;;;5.27;;
12271;SDS011;6198;51.446;6.698;2024-02-16T08:05:27;10.27;;;4.20;;
12271;SDS011;6198;51.446;6.698;2024-02-16T08:07:53;10.27;;;3.33;;
12271;SDS011;6198;51.446;6.698;2024-02-16T08:10:20;9.13;;;3.30;;
12271;SDS011;6198;51.446;6.698;2024-02-16T08:12:46;6.77;;;3.93;;
12271;SDS011;6198;51.446;6.698;2024-02-16T08:15:12;7.23;;;3.40;;
12271;SDS011;6198;51.446;6.698;2024-02-16T08:17:39;6.57;;;3.50;;
12271;SDS011;6198;51.446;6.698;2024-02-16T08:20:05;4.53;;;3.10;;
12271;SDS011;6198;51.446;6.698;2024-02-16T08:22:32;4.87;;;3.00;;
12271;SDS011;6198;51.446;6.698;2024-02-16T08:24:59;3.07;;;2.83;;
12271;SDS011;6198;51.446;6.698;2024-02-16T08:27:25;7.67;;;3.60;;
12271;SDS011;6198;51.446;6.698;2024-02-16T08:29:51;5.03;;;3.10;;
12271;SDS011;6198;51.446;6.698;2024-02-16T08:32:17;4.90;;;3.47;;
12271;SDS011;6198;51.446;6.698;2024-02-16T08:34:45;4.30;;;3.07;;
12271;SDS011;6198;51.446;6.698;2024-02-16T08:37:13;5.23;;;3.13;;
12271;SDS011;6198;51.446;6.698;2024-02-16T08:39:39;6.90;;;3.83;;
12271;SDS011;6198;51.446;6.698;2024-02-16T08:42:06;9.57;;;3.40;;
12271;SDS011;6198;51.446;6.698;2024-02-16T08:44:33;6.97;;;3.33;;
12271;SDS011;6198;51.446;6.698;2024-02-16T08:46:59;6.20;;;3.47;;
12271;SDS011;6198;51.446;6.698;2024-02-16T08:49:25;8.07;;;4.03;;
12271;SDS011;6198;51.446;6.698;2024-02-16T08:51:52;9.23;;;3.70;;
12271;SDS011;6198;51.446;6.698;2024-02-16T08:54:18;5.40;;;4.10;;
12271;SDS011;6198;51.446;6.698;2024-02-16T08:56:44;5.20;;;3.83;;
12271;SDS011;6198;51.446;6.698;2024-02-16T08:59:10;7.10;;;3.30;;
12271;SDS011;6198;51.446;6.698;2024-02-16T09:01:37;6.60;;;3.03;;
12271;SDS011;6198;51.446;6.698;2024-02-16T09:04:04;4.83;;;3.30;;
12271;SDS011;6198;51.446;6.698;2024-02-16T09:06:30;6.03;;;2.97;;
12271;SDS011;6198;51.446;6.698;2024-02-16T09:08:56;4.60;;;3.20;;
12271;SDS011;6198;51.446;6.698;2024-02-16T09:11:23;6.63;;;3.77;;
12271;SDS011;6198;51.446;6.698;2024-02-16T09:13:49;6.80;;;3.37;;
12271;SDS011;6198;51.446;6.698;2024-02-16T09:16:15;5.80;;;3.20;;
12271;SDS011;6198;51.446;6.698;2024-02-16T09:18:41;6.13;;;3.67;;
12271;SDS011;6198;51.446;6.698;2024-02-16T09:21:07;5.53;;;3.23;;
12271;SDS011;6198;51.446;6.698;2024-02-16T09:23:33;7.20;;;2.93;;
12271;SDS011;6198;51.446;6.698;2024-02-16T09:25:59;4.40;;;2.80;;
12271;SDS011;6198;51.446;6.698;2024-02-16T09:28:26;5.60;;;3.30;;
12271;SDS011;6198;51.446;6.698;2024-02-16T09:30:52;3.87;;;2.83;;
12271;SDS011;6198;51.446;6.698;2024-02-16T09:33:19;9.20;;;3.40;;
12271;SDS011;6198;51.446;6.698;2024-02-16T09:35:46;8.60;;;3.37;;
12271;SDS011;6198;51.446;6.698;2024-02-16T09:38:12;6.60;;;3.60;;
12271;SDS011;6198;51.446;6.698;2024-02-16T09:40:38;5.40;;;3.20;;
12271;SDS011;6198;51.446;6.698;2024-02-16T09:43:05;6.43;;;2.90;;
12271;SDS011;6198;51.446;6.698;2024-02-16T09:45:31;8.80;;;3.57;;
12271;SDS011;6198;51.446;6.698;2024-02-16T09:47:58;12.30;;;4.00;;
12271;SDS011;6198;51.446;6.698;2024-02-16T09:50:24;7.33;;;3.67;;
12271;SDS011;6198;51.446;6.698;2024-02-16T09:52:52;6.20;;;3.70;;
12271;SDS011;6198;51.446;6.698;2024-02-16T09:55:18;8.13;;;3.93;;
12271;SDS011;6198;51.446;6.698;2024-02-16T09:57:44;6.53;;;3.67;;
12271;SDS011;6198;51.446;6.698;2024-02-16T10:00:10;11.17;;;3.70;;
12271;SDS011;6198;51.446;6.698;2024-02-16T10:02:43;7.93;;;3.57;;
12271;SDS011;6198;51.446;6.698;2024-02-16T10:05:13;11.40;;;3.40;;
12271;SDS011;6198;51.446;6.698;2024-02-16T10:07:39;5.30;;;3.70;;
12271;SDS011;6198;51.446;6.698;2024-02-16T10:10:05;7.90;;;3.13;;
12271;SDS011;6198;51.446;6.698;2024-02-16T10:12:31;6.00;;;3.33;;
12271;SDS011;6198;51.446;6.698;2024-02-16T10:14:57;11.20;;;3.30;;
12271;SDS011;6198;51.446;6.698;2024-02-16T10:17:25;5.83;;;3.20;;
12271;SDS011;6198;51.446;6.698;2024-02-16T10:19:55;7.47;;;3.43;;
12271;SDS011;6198;51.446;6.698;2024-02-16T10:22:21;4.37;;;2.93;;
12271;SDS011;6198;51.446;6.698;2024-02-16T10:24:48;5.80;;;3.53;;
12271;SDS011;6198;51.446;6.698;2024-02-16T10:27:15;11.83;;;3.93;;
12271;SDS011;6198;51.446;6.698;2024-02-16T10:29:43;5.63;;;3.40;;
12271;SDS011;6198;51.446;6.698;2024-02-16T10:32:14;7.83;;;3.67;;
12271;SDS011;6198;51.446;6.698;2024-02-16T10:34:40;4.93;;;3.43;;
12271;SDS011;6198;51.446;6.698;2024-02-16T10:37:06;5.83;;;2.80;;
12271;SDS011;6198;51.446;6.698;2024-02-16T10:39:33;7.73;;;3.70;;
12271;SDS011;6198;51.446;6.698;2024-02-16T10:42:01;5.47;;;3.10;;
12271;SDS011;6198;51.446;6.698;2024-02-16T10:44:27;4.40;;;3.17;;
12271;SDS011;6198;51.446;6.698;2024-02-16T10:46:54;6.40;;;3.67;;
12271;SDS011;6198;51.446;6.698;2024-02-16T10:49:23;6.77;;;3.43;;
12271;SDS011;6198;51.446;6.698;2024-02-16T10:51:51;7.17;;;3.40;;
12271;SDS011;6198;51.446;6.698;2024-02-16T10:54:21;5.67;;;3.57;;
12271;SDS011;6198;51.446;6.698;2024-02-16T10:56:48;6.07;;;2.70;;
12271;SDS011;6198;51.446;6.698;2024-02-16T10:59:16;7.30;;;3.43;;
12271;SDS011;6198;51.446;6.698;2024-02-16T11:01:42;5.77;;;3.53;;
12271;SDS011;6198;51.446;6.698;2024-02-16T11:04:11;5.40;;;3.23;;
12271;SDS011;6198;51.446;6.698;2024-02-16T11:06:52;4.30;;;2.93;;
12271;SDS011;6198;51.446;6.698;2024-02-16T11:09:29;6.47;;;3.87;;
12271;SDS011;6198;51.446;6.698;2024-02-16T11:11:58;6.77;;;3.57;;
12271;SDS011;6198;51.446;6.698;2024-02-16T11:14:33;12.67;;;6.80;;
12271;SDS011;6198;51.446;6.698;2024-02-16T11:16:59;8.03;;;5.03;;
12271;SDS011;6198;51.446;6.698;2024-02-16T11:19:25;4.93;;;4.00;;
12271;SDS011;6198;51.446;6.698;2024-02-16T11:21:55;5.53;;;3.50;;
12271;SDS011;6198;51.446;6.698;2024-02-16T11:24:27;8.93;;;4.20;;
12271;SDS011;6198;51.446;6.698;2024-02-16T11:26:53;8.80;;;4.03;;
12271;SDS011;6198;51.446;6.698;2024-02-16T11:29:20;8.40;;;3.90;;
12271;SDS011;6198;51.446;6.698;2024-02-16T11:31:46;8.67;;;4.23;;
12271;SDS011;6198;51.446;6.698;2024-02-16T11:34:34;7.17;;;4.17;;
12271;SDS011;6198;51.446;6.698;2024-02-16T11:36:59;6.70;;;4.30;;
12271;SDS011;6198;51.446;6.698;2024-02-16T11:39:26;6.60;;;5.10;;
12271;SDS011;6198;51.446;6.698;2024-02-16T11:41:59;8.67;;;3.90;;
12271;SDS011;6198;51.446;6.698;2024-02-16T11:44:26;6.33;;;4.33;;
12271;SDS011;6198;51.446;6.698;2024-02-16T11:46:55;7.33;;;5.30;;
12271;SDS011;6198;51.446;6.698;2024-02-16T11:49:21;9.87;;;3.70;;
12271;SDS011;6198;51.446;6.698;2024-02-16T11:51:47;9.13;;;4.33;;
12271;SDS011;6198;51.446;6.698;2024-02-16T11:54:13;6.80;;;4.37;;
12271;SDS011;6198;51.446;6.698;2024-02-16T11:56:40;8.53;;;4.57;;
12271;SDS011;6198;51.446;6.698;2024-02-16T11:59:10;9.27;;;4.07;;
12271;SDS011;6198;51.446;6.698;2024-02-16T12:01:36;8.57;;;4.20;;
12271;SDS011;6198;51.446;6.698;2024-02-16T12:04:02;8.37;;;4.63;;
12271;SDS011;6198;51.446;6.698;2024-02-16T12:06:28;9.73;;;4.30;;
12271;SDS011;6198;51.446;6.698;2024-02-16T12:08:55;12.00;;;4.97;;
12271;SDS011;6198;51.446;6.698;2024-02-16T12:11:21;9.33;;;4.93;;
12271;SDS011;6198;51.446;6.698;2024-02-16T12:13:49;8.90;;;5.00;;
12271;SDS011;6198;51.446;6.698;2024-02-16T12:16:15;11.20;;;4.50;;
12271;SDS011;6198;51.446;6.698;2024-02-16T12:18:43;10.27;;;5.10;;
12271;SDS011;6198;51.446;6.698;2024-02-16T12:21:10;16.27;;;4.90;;
12271;SDS011;6198;51.446;6.698;2024-02-16T12:23:36;11.40;;;4.93;;
12271;SDS011;6198;51.446;6.698;2024-02-16T12:26:03;12.17;;;5.03;;
12271;SDS011;6198;51.446;6.698;2024-02-16T12:28:29;7.03;;;4.80;;
12271;SDS011;6198;51.446;6.698;2024-02-16T12:30:57;9.07;;;5.07;;
12271;SDS011;6198;51.446;6.698;2024-02-16T12:33:24;12.73;;;5.40;;
12271;SDS011;6198;51.446;6.698;2024-02-16T12:35:50;13.90;;;5.77;;
12271;SDS011;6198;51.446;6.698;2024-02-16T12:38:16;11.10;;;5.20;;
12271;SDS011;6198;51.446;6.698;2024-02-16T12:40:44;8.00;;;5.47;;
12271;SDS011;6198;51.446;6.698;2024-02-16T12:43:10;15.17;;;6.20;;
12271;SDS011;6198;51.446;6.698;2024-02-16T12:45:37;10.10;;;5.37;;
12271;SDS011;6198;51.446;6.698;2024-02-16T12:48:03;13.63;;;5.30;;
12271;SDS011;6198;51.446;6.698;2024-02-16T12:50:30;13.40;;;6.03;;
12271;SDS011;6198;51.446;6.698;2024-02-16T12:52:56;12.07;;;5.80;;
12271;SDS011;6198;51.446;6.698;2024-02-16T12:55:23;9.83;;;6.27;;
12271;SDS011;6198;51.446;6.698;2024-02-16T12:57:49;10.07;;;6.10;;
12271;SDS011;6198;51.446;6.698;2024-02-16T13:00:16;9.50;;;5.93;;
12271;SDS011;6198;51.446;6.698;2024-02-16T13:02:42;9.67;;;5.80;;
12271;SDS011;6198;51.446;6.698;2024-02-16T13:05:08;11.67;;;5.90;;
12271;SDS011;6198;51.446;6.698;2024-02-16T13:07:34;7.53;;;5.23;;
12271;SDS011;6198;51.446;6.698;2024-02-16T13:10:00;10.77;;;6.67;;
12271;SDS011;6198;51.446;6.698;2024-02-16T13:12:27;11.03;;;6.23;;
12271;SDS011;6198;51.446;6.698;2024-02-16T13:14:53;9.27;;;6.17;;
12271;SDS011;6198;51.446;6.698;2024-02-16T13:17:19;15.60;;;6.23;;
12271;SDS011;6198;51.446;6.698;2024-02-16T13:19:45;12.10;;;6.93;;
12271;SDS011;6198;51.446;6.698;2024-02-16T13:22:11;11.37;;;6.70;;
12271;SDS011;6198;51.446;6.698;2024-02-16T13:24:37;14.83;;;7.23;;
12271;SDS011;6198;51.446;6.698;2024-02-16T13:27:03;12.73;;;8.17;;
12271;SDS011;6198;51.446;6.698;2024-02-16T13:29:31;11.53;;;7.50;;
12271;SDS011;6198;51.446;6.698;2024-02-16T13:31:58;11.13;;;7.23;;
12271;SDS011;6198;51.446;6.698;2024-02-16T13:34:24;10.57;;;7.60;;
12271;SDS011;6198;51.446;6.698;2024-02-16T13:36:52;16.70;;;7.90;;
12271;SDS011;6198;51.446;6.698;2024-02-16T13:39:17;13.30;;;7.97;;
12271;SDS011;6198;51.446;6.698;2024-02-16T13:41:44;11.27;;;8.17;;
12271;SDS011;6198;51.446;6.698;2024-02-16T13:44:12;9.97;;;7.57;;
12271;SDS011;6198;51.446;6.698;2024-02-16T13:46:38;17.37;;;8.27;;
12271;SDS011;6198;51.446;6.698;2024-02-16T13:49:04;12.80;;;9.10;;
12271;SDS011;6198;51.446;6.698;2024-02-16T13:51:30;12.83;;;8.63;;
12271;SDS011;6198;51.446;6.698;2024-02-16T13:53:56;12.20;;;8.23;;
12271;SDS011;6198;51.446;6.698;2024-02-16T13:56:22;15.67;;;8.87;;
12271;SDS011;6198;51.446;6.698;2024-02-16T13:58:48;15.47;;;9.17;;
12271;SDS011;6198;51.446;6.698;2024-02-16T14:01:14;16.20;;;10.00;;
12271;SDS011;6198;51.446;6.698;2024-02-16T14:03:40;20.20;;;10.10;;
12271;SDS011;6198;51.446;6.698;2024-02-16T14:06:06;16.43;;;9.57;;
12271;SDS011;6198;51.446;6.698;2024-02-16T14:08:34;15.47;;;10.60;;
12271;SDS011;6198;51.446;6.698;2024-02-16T14:11:01;12.13;;;9.70;;
12271;SDS011;6198;51.446;6.698;2024-02-16T14:13:27;13.20;;;9.77;;
12271;SDS011;6198;51.446;6.698;2024-02-16T14:15:53;15.87;;;9.73;;
12271;SDS011;6198;51.446;6.698;2024-02-16T14:18:19;16.17;;;10.43;;
12271;SDS011;6198;51.446;6.698;2024-02-16T14:20:45;14.63;;;10.40;;
12271;SDS011;6198;51.446;6.698;2024-02-16T14:23:11;13.53;;;9.73;;
12271;SDS011;6198;51.446;6.698;2024-02-16T14:25:37;13.13;;;9.67;;
12271;SDS011;6198;51.446;6.698;2024-02-16T14:28:05;18.67;;;14.07;;
12271;SDS011;6198;51.446;6.698;2024-02-16T14:30:31;15.33;;;8.97;;
12271;SDS011;6198;51.446;6.698;2024-02-16T14:32:58;11.30;;;9.23;;
12271;SDS011;6198;51.446;6.698;2024-02-16T14:35:24;14.93;;;9.67;;
12271;SDS011;6198;51.446;6.698;2024-02-16T14:37:50;11.50;;;8.77;;
12271;SDS011;6198;51.446;6.698;2024-02-16T14:40:16;11.10;;;8.63;;
12271;SDS011;6198;51.446;6.698;2024-02-16T14:42:42;16.27;;;8.93;;
12271;SDS011;6198;51.446;6.698;2024-02-16T14:45:08;11.60;;;8.80;;
12271;SDS011;6198;51.446;6.698;2024-02-16T14:47:37;10.90;;;7.80;;
12271;SDS011;6198;51.446;6.698;2024-02-16T14:50:04;11.83;;;8.63;;
12271;SDS011;6198;51.446;6.698;2024-02-16T14:52:32;10.07;;;7.90;;